Attica, New York
Current Conditions -  °F | °C
As of 11:54 AM on Tuesday 21 Oct 2014 (Local Time) from KBUF Reporting Station
Overcast Overcast  
Wind Chill: 53°   Ceiling: 1500
Heat Index: 53°   Visibility: 9mi
Dew Point: 48°   Wind: 5mph
Humidity: 83%   Direction: 350°N
Pressure: 29.86"   Gusts: NA
Location:  42.86°N, 78.28°W
Report Text: KBUF 211554Z 35004KT 9SM FEW009 BKN015 OVC021 12/09 A2986 RMK AO2 SLP113 T01170089
Loading
Personal Weather Stations






























Interactive Weather Map
Tropical Storm Tracking
New forecast layout! Learn more

10-Day Weather Forecast

Advertisements
Track Severe Weather on mobile